Time;durP1;ratioP1;P1;durP2;ratioP2;P2;SDS_P1;SDS_P2;PMS_P1;PMS_P2;Temp;Humidity;BMP_temperature;BMP_pressure;BME280_temperature;BME280_humidity;BME280_pressure;Samples;Min_cycle;Max_cycle;Signal;HPM_P1;HPM_P2
2023/04/30 00:00:26;;;;;;;4.88;3.15;;;10.20;99.90;;;;;;4979571;28;20536;-73
2023/04/30 00:02:52;;;;;;;6.60;3.20;;;10.10;99.90;;;;;;4953168;28;20410;-74
2023/04/30 00:05:18;;;;;;;8.10;3.45;;;10.20;99.90;;;;;;4982239;28;20414;-73
2023/04/30 00:07:47;;;;;;;8.02;3.47;;;10.10;99.90;;;;;;4957394;28;21617;-73
2023/04/30 00:10:13;;;;;;;4.83;3.10;;;10.10;99.90;;;;;;4977827;28;20437;-73
2023/04/30 00:12:39;;;;;;;4.88;2.83;;;10.20;99.90;;;;;;4958299;28;20499;-74
2023/04/30 00:15:06;;;;;;;6.32;3.38;;;10.30;99.90;;;;;;4950121;28;20428;-73
2023/04/30 00:17:32;;;;;;;5.55;2.95;;;10.20;99.90;;;;;;4970802;28;20429;-74
2023/04/30 00:19:58;;;;;;;6.15;3.10;;;10.10;99.90;;;;;;4953367;28;20624;-73
2023/04/30 00:22:25;;;;;;;6.47;3.33;;;10.10;99.90;;;;;;4957466;28;20592;-74
2023/04/30 00:24:51;;;;;;;5.35;3.10;;;10.20;99.90;;;;;;4955327;28;20440;-73
2023/04/30 00:27:17;;;;;;;6.47;3.00;;;10.20;99.90;;;;;;4958064;28;21302;-73
2023/04/30 00:29:43;;;;;;;5.60;3.10;;;10.30;99.90;;;;;;4967436;28;20422;-73
2023/04/30 00:32:09;;;;;;;7.40;3.40;;;10.20;99.90;;;;;;4976293;28;20942;-73
2023/04/30 00:34:36;;;;;;;6.07;3.53;;;10.20;99.90;;;;;;4986723;28;21026;-73
2023/04/30 00:37:02;;;;;;;7.13;3.13;;;10.20;99.90;;;;;;4957175;28;20421;-73
2023/04/30 00:39:28;;;;;;;6.32;3.35;;;10.30;99.90;;;;;;5039899;28;20428;-73
2023/04/30 00:41:54;;;;;;;8.63;3.50;;;10.20;99.90;;;;;;4980063;28;20427;-74
2023/04/30 00:44:20;;;;;;;7.07;3.23;;;10.30;99.90;;;;;;4958863;28;20448;-73
2023/04/30 00:46:47;;;;;;;6.68;3.58;;;10.30;99.90;;;;;;4955484;28;20416;-73
2023/04/30 00:49:13;;;;;;;5.85;3.40;;;10.30;99.90;;;;;;4987537;28;20435;-73
2023/04/30 00:51:43;;;;;;;6.40;3.27;;;10.40;99.90;;;;;;4981474;28;20497;-73
2023/04/30 00:54:10;;;;;;;8.03;3.63;;;10.40;99.90;;;;;;4958980;28;20506;-74
2023/04/30 00:56:36;;;;;;;5.50;3.30;;;10.40;99.90;;;;;;5001477;28;20512;-73
2023/04/30 00:59:03;;;;;;;7.75;3.30;;;10.30;99.90;;;;;;5002482;28;20424;-74
2023/04/30 01:01:30;;;;;;;6.55;3.67;;;10.40;99.90;;;;;;4987155;28;20448;-73
2023/04/30 01:03:57;;;;;;;7.10;3.50;;;10.40;99.90;;;;;;4981705;28;20412;-74
2023/04/30 01:06:25;;;;;;;6.35;3.22;;;10.30;99.90;;;;;;4967334;28;20424;-75
2023/04/30 01:08:52;;;;;;;4.90;3.00;;;10.30;99.90;;;;;;4964636;28;21003;-75
2023/04/30 01:12:23;;;;;;;5.57;3.33;;;10.30;99.90;;;;;;5046939;28;20449;-76
2023/04/30 01:15:06;;;;;;;5.18;2.92;;;10.30;99.90;;;;;;4985135;28;22552;-75
2023/04/30 01:17:58;;;;;;;6.35;3.08;;;10.20;99.90;;;;;;4977771;28;20436;-76
2023/04/30 01:20:28;;;;;;;8.97;3.17;;;10.10;99.90;;;;;;4981243;28;20412;-75
2023/04/30 01:23:33;;;;;;;6.85;3.30;;;10.00;99.90;;;;;;4974088;28;20416;-75
2023/04/30 01:26:22;;;;;;;9.10;3.40;;;10.00;99.90;;;;;;4965637;28;20428;-75
2023/04/30 01:28:52;;;;;;;8.40;3.03;;;9.90;99.90;;;;;;4954026;28;21101;-76
2023/04/30 01:31:19;;;;;;;6.50;3.30;;;9.90;99.90;;;;;;4974177;28;20512;-75
2023/04/30 01:33:45;;;;;;;7.70;3.53;;;10.00;99.90;;;;;;4969403;28;20410;-76
2023/04/30 01:36:53;;;;;;;6.93;3.20;;;9.90;99.90;;;;;;4967571;28;20502;-75
2023/04/30 01:39:57;;;;;;;7.43;3.10;;;9.90;99.90;;;;;;4964953;28;20416;-76
2023/04/30 01:42:51;;;;;;;6.70;2.97;;;10.00;99.90;;;;;;4993035;28;20428;-75
2023/04/30 01:45:34;;;;;;;7.70;3.22;;;9.90;99.90;;;;;;4971161;28;20774;-75
2023/04/30 01:49:14;;;;;;;7.25;3.40;;;9.90;99.90;;;;;;4963626;28;20418;-76
2023/04/30 01:51:45;;;;;;;5.28;2.97;;;9.90;99.90;;;;;;4916996;28;20461;-75
2023/04/30 01:54:38;;;;;;;5.20;3.30;;;9.90;99.90;;;;;;4961857;28;20833;-75
2023/04/30 01:57:29;;;;;;;6.95;2.80;;;9.90;99.90;;;;;;4962301;28;20419;-75
2023/04/30 01:59:57;;;;;;;7.93;3.22;;;9.80;99.90;;;;;;4964406;28;20905;-73
2023/04/30 02:02:23;;;;;;;6.68;2.95;;;9.90;99.90;;;;;;4957291;28;20967;-73
2023/04/30 02:04:49;;;;;;;7.07;3.10;;;10.00;99.90;;;;;;4965709;28;20597;-73
2023/04/30 02:07:37;;;;;;;7.00;3.10;;;10.00;99.90;;;;;;4968321;28;20418;-73
2023/04/30 02:10:05;;;;;;;5.88;3.30;;;10.00;99.90;;;;;;4967410;28;21709;-73
2023/04/30 02:12:31;;;;;;;8.02;3.53;;;10.10;99.90;;;;;;4996629;28;20760;-73
2023/04/30 02:14:57;;;;;;;6.43;3.20;;;10.10;99.90;;;;;;4975403;28;20482;-73
2023/04/30 02:17:23;;;;;;;5.75;3.20;;;10.20;99.90;;;;;;4972969;28;20494;-73
2023/04/30 02:19:49;;;;;;;7.05;3.42;;;10.20;99.90;;;;;;4965362;28;20983;-74
2023/04/30 02:22:16;;;;;;;8.55;3.30;;;10.20;99.90;;;;;;4975526;28;20933;-73
2023/04/30 02:24:42;;;;;;;6.90;3.40;;;10.20;99.90;;;;;;4964293;28;20943;-73
2023/04/30 02:27:08;;;;;;;7.45;3.20;;;10.30;99.90;;;;;;4964410;28;20790;-73
2023/04/30 02:29:34;;;;;;;6.85;3.53;;;10.30;99.90;;;;;;4957440;28;20950;-73
2023/04/30 02:32:01;;;;;;;8.82;3.38;;;10.30;99.90;;;;;;4962230;28;20428;-73
2023/04/30 02:34:27;;;;;;;7.10;2.95;;;10.40;99.90;;;;;;4955898;28;20789;-73
2023/04/30 02:36:53;;;;;;;5.33;3.20;;;10.40;99.90;;;;;;4956441;28;20463;-73
2023/04/30 02:39:19;;;;;;;7.75;3.65;;;10.40;99.90;;;;;;4980019;28;20430;-74
2023/04/30 02:41:45;;;;;;;5.60;3.20;;;10.40;99.90;;;;;;4954246;28;20424;-73
2023/04/30 02:44:13;;;;;;;7.18;3.25;;;10.40;99.90;;;;;;4958382;28;20410;-73
2023/04/30 02:46:39;;;;;;;8.55;3.20;;;10.40;99.90;;;;;;4982865;28;20477;-73
2023/04/30 02:49:05;;;;;;;6.70;3.15;;;10.30;99.90;;;;;;4960705;28;20449;-73
2023/04/30 02:51:31;;;;;;;7.10;3.58;;;10.40;99.90;;;;;;4961952;28;20415;-73
2023/04/30 02:53:58;;;;;;;7.88;3.15;;;10.40;99.90;;;;;;4962275;28;20514;-74
2023/04/30 02:56:24;;;;;;;5.82;3.20;;;10.40;99.90;;;;;;4951728;28;21132;-73
2023/04/30 02:58:50;;;;;;;7.10;3.33;;;10.40;99.90;;;;;;4958128;28;20414;-74
2023/04/30 03:01:16;;;;;;;8.73;3.50;;;10.40;99.90;;;;;;4963038;28;20420;-73
2023/04/30 03:03:42;;;;;;;9.23;3.55;;;10.30;99.90;;;;;;4958984;28;20416;-73
2023/04/30 03:06:09;;;;;;;7.55;3.33;;;10.40;99.90;;;;;;4961974;28;20522;-74
2023/04/30 03:08:35;;;;;;;6.95;3.20;;;10.40;99.90;;;;;;4959970;28;20424;-74
2023/04/30 03:11:01;;;;;;;7.07;3.20;;;10.40;99.90;;;;;;4963488;28;20430;-73
2023/04/30 03:13:27;;;;;;;6.88;3.22;;;10.40;99.90;;;;;;4990685;28;20424;-73
2023/04/30 03:16:05;;;;;;;8.55;3.35;;;10.40;99.90;;;;;;4955532;28;20424;-73
2023/04/30 03:18:32;;;;;;;7.60;3.40;;;10.50;99.90;;;;;;4987327;28;20481;-73
2023/04/30 03:20:58;;;;;;;5.67;3.00;;;10.50;99.90;;;;;;4969250;28;20471;-73
2023/04/30 03:23:27;;;;;;;6.78;3.17;;;10.50;99.90;;;;;;4942986;28;20436;-73
2023/04/30 03:25:54;;;;;;;6.53;3.00;;;10.50;99.90;;;;;;4957641;28;20494;-73
2023/04/30 03:28:20;;;;;;;7.25;3.10;;;10.50;99.90;;;;;;4957854;28;20427;-73
2023/04/30 03:30:46;;;;;;;7.07;3.03;;;10.50;99.90;;;;;;4988384;28;20422;-73
2023/04/30 03:33:12;;;;;;;7.43;3.20;;;10.50;99.90;;;;;;4955278;28;20414;-73
2023/04/30 03:35:39;;;;;;;7.55;3.30;;;10.50;99.90;;;;;;4976201;28;20895;-73
2023/04/30 03:38:05;;;;;;;9.68;3.65;;;10.60;99.90;;;;;;4959217;28;20882;-73
2023/04/30 03:40:31;;;;;;;6.17;3.10;;;10.60;99.90;;;;;;4960679;28;20527;-74
2023/04/30 03:42:57;;;;;;;7.45;3.40;;;10.60;99.90;;;;;;4959774;28;21345;-73
2023/04/30 03:45:24;;;;;;;7.63;3.45;;;10.60;99.90;;;;;;4975002;28;20425;-73
2023/04/30 03:47:51;;;;;;;7.40;3.20;;;10.60;99.90;;;;;;4970423;28;20453;-73
2023/04/30 03:50:18;;;;;;;8.50;3.35;;;10.60;99.90;;;;;;4950364;28;20422;-74
2023/04/30 03:52:45;;;;;;;7.28;3.38;;;10.50;99.90;;;;;;4961620;28;20429;-73
2023/04/30 03:55:11;;;;;;;6.97;3.20;;;10.50;99.90;;;;;;4964622;28;20474;-73
2023/04/30 03:57:41;;;;;;;8.30;3.40;;;10.50;99.90;;;;;;4960750;28;20430;-73
2023/04/30 04:00:09;;;;;;;6.65;3.30;;;10.60;99.90;;;;;;4959703;28;20419;-74
2023/04/30 04:02:36;;;;;;;7.93;3.45;;;10.60;99.90;;;;;;4956596;28;20481;-73
2023/04/30 04:05:03;;;;;;;8.90;3.30;;;10.60;99.90;;;;;;4955668;28;20435;-73
2023/04/30 04:07:30;;;;;;;7.53;3.10;;;10.70;99.90;;;;;;4957462;28;20981;-74
2023/04/30 04:09:56;;;;;;;6.43;3.40;;;10.80;99.90;;;;;;4952697;28;20429;-74
2023/04/30 04:12:22;;;;;;;8.65;3.17;;;10.80;99.90;;;;;;4950846;28;20967;-73
2023/04/30 04:14:48;;;;;;;9.55;3.58;;;10.90;99.90;;;;;;4954478;28;20473;-73
2023/04/30 04:17:15;;;;;;;8.90;3.40;;;10.90;99.90;;;;;;4959449;28;20431;-74
2023/04/30 04:19:41;;;;;;;7.20;3.40;;;11.00;99.90;;;;;;4956128;28;20866;-73
2023/04/30 04:22:07;;;;;;;7.18;3.10;;;11.00;99.90;;;;;;4965158;28;20421;-73
2023/04/30 04:24:34;;;;;;;8.77;3.50;;;11.20;99.90;;;;;;4987471;28;20413;-74
2023/04/30 04:27:02;;;;;;;7.60;3.85;;;11.40;99.90;;;;;;4962407;28;20462;-73
2023/04/30 04:29:28;;;;;;;8.45;3.35;;;11.40;99.90;;;;;;4967224;28;20585;-73
2023/04/30 04:31:55;;;;;;;7.10;3.70;;;11.50;99.90;;;;;;4958110;28;20414;-73
2023/04/30 04:34:21;;;;;;;6.50;3.38;;;11.50;99.90;;;;;;4972898;28;20422;-73
2023/04/30 04:36:47;;;;;;;8.75;3.80;;;11.60;99.90;;;;;;4951194;28;20548;-73
2023/04/30 04:39:14;;;;;;;7.05;3.35;;;11.70;99.90;;;;;;4986197;28;20846;-74
2023/04/30 04:41:41;;;;;;;8.00;3.40;;;11.90;99.90;;;;;;4957464;28;20527;-73
2023/04/30 04:44:07;;;;;;;5.53;3.17;;;12.00;99.90;;;;;;4959988;28;20764;-73
2023/04/30 04:46:37;;;;;;;8.07;3.40;;;12.10;99.90;;;;;;4965005;28;20485;-73
2023/04/30 04:49:03;;;;;;;7.53;3.20;;;12.20;99.90;;;;;;4961721;28;20502;-74
2023/04/30 04:51:31;;;;;;;8.60;3.00;;;12.40;99.90;;;;;;5048989;28;20426;-73
2023/04/30 04:53:58;;;;;;;8.10;3.40;;;12.50;99.90;;;;;;4961354;28;20414;-74
2023/04/30 04:56:25;;;;;;;7.57;3.38;;;12.50;99.90;;;;;;4965906;28;20410;-73
2023/04/30 04:58:51;;;;;;;7.50;3.20;;;12.60;99.90;;;;;;4953847;28;21199;-74
2023/04/30 05:01:18;;;;;;;7.38;3.42;;;12.60;99.90;;;;;;4961797;28;20464;-74
2023/04/30 05:03:44;;;;;;;6.78;3.22;;;12.70;99.90;;;;;;4955828;28;20419;-74
2023/04/30 05:06:10;;;;;;;9.30;3.50;;;12.70;99.90;;;;;;4957773;28;20570;-74
2023/04/30 05:08:37;;;;;;;6.70;3.00;;;12.90;99.90;;;;;;4962969;28;20787;-73
2023/04/30 05:11:03;;;;;;;7.93;3.25;;;12.90;99.90;;;;;;4990047;28;20866;-73
2023/04/30 05:13:30;;;;;;;7.10;3.17;;;12.90;99.90;;;;;;4967168;28;20415;-74
2023/04/30 05:15:56;;;;;;;8.75;3.08;;;12.80;99.90;;;;;;4958342;28;20425;-74
2023/04/30 05:18:22;;;;;;;7.85;3.10;;;12.80;99.90;;;;;;4957000;28;20430;-73
2023/04/30 05:20:48;;;;;;;8.10;3.20;;;12.80;99.90;;;;;;4961357;28;20407;-74
2023/04/30 05:23:15;;;;;;;5.10;3.08;;;12.80;99.90;;;;;;4959690;28;21080;-74
2023/04/30 05:25:41;;;;;;;6.95;3.00;;;12.80;99.90;;;;;;4956086;28;20422;-74
2023/04/30 05:28:08;;;;;;;8.75;3.20;;;12.90;99.90;;;;;;4974639;28;20420;-74
2023/04/30 05:30:35;;;;;;;7.40;3.20;;;12.90;99.90;;;;;;4951421;28;21060;-74
2023/04/30 05:33:01;;;;;;;7.63;3.33;;;13.00;99.90;;;;;;4981532;28;20921;-74
2023/04/30 05:35:27;;;;;;;6.95;3.10;;;13.00;99.90;;;;;;4960166;28;20505;-73
2023/04/30 05:37:54;;;;;;;6.00;3.10;;;13.10;99.90;;;;;;4963512;28;20427;-74
2023/04/30 05:40:20;;;;;;;4.93;2.83;;;13.20;99.90;;;;;;4963845;28;20415;-74
2023/04/30 05:42:46;;;;;;;7.82;3.20;;;13.20;99.90;;;;;;4966346;28;21187;-74
2023/04/30 05:45:14;;;;;;;9.68;3.47;;;13.30;99.90;;;;;;4973335;28;20456;-74
2023/04/30 05:47:41;;;;;;;8.98;3.15;;;13.40;99.90;;;;;;4960214;28;20427;-74
2023/04/30 05:50:08;;;;;;;5.88;3.00;;;13.40;99.90;;;;;;4959101;28;20428;-74
2023/04/30 05:52:35;;;;;;;6.90;2.90;;;13.50;99.90;;;;;;4965834;28;20752;-74
2023/04/30 05:55:01;;;;;;;6.40;2.90;;;13.50;99.90;;;;;;4969732;28;21007;-74
2023/04/30 05:57:28;;;;;;;4.78;2.90;;;13.50;99.90;;;;;;4965366;28;20426;-74
2023/04/30 05:59:54;;;;;;;6.72;2.95;;;13.60;99.90;;;;;;4960580;28;20416;-74
2023/04/30 06:02:20;;;;;;;8.60;3.30;;;13.70;99.90;;;;;;4961755;28;20416;-74
2023/04/30 06:04:47;;;;;;;7.93;3.00;;;13.80;99.90;;;;;;4953492;28;20454;-74
2023/04/30 06:07:13;;;;;;;10.27;3.53;;;13.90;99.90;;;;;;4956015;28;20455;-74
2023/04/30 06:09:40;;;;;;;5.57;2.72;;;13.80;99.90;;;;;;4980068;28;20432;-74
2023/04/30 06:12:06;;;;;;;4.85;2.67;;;13.90;99.90;;;;;;4960807;28;20522;-74
2023/04/30 06:14:32;;;;;;;6.63;2.88;;;13.90;99.90;;;;;;4956356;28;20420;-74
2023/04/30 06:16:59;;;;;;;7.18;2.88;;;14.10;99.90;;;;;;4959979;28;21260;-74
2023/04/30 06:19:25;;;;;;;4.75;2.67;;;14.20;99.90;;;;;;4957903;28;20426;-74
2023/04/30 06:21:51;;;;;;;6.47;2.60;;;14.30;99.90;;;;;;4961695;28;20481;-74
2023/04/30 06:24:17;;;;;;;6.68;2.80;;;14.40;99.90;;;;;;4960983;28;20751;-74
2023/04/30 06:26:44;;;;;;;7.68;2.70;;;14.40;99.90;;;;;;5039969;28;20953;-74
2023/04/30 06:29:10;;;;;;;5.40;2.80;;;14.40;99.90;;;;;;4947055;28;20422;-74
2023/04/30 06:31:37;;;;;;;6.18;2.40;;;14.30;99.90;;;;;;4958298;28;20424;-74
2023/04/30 06:34:03;;;;;;;4.82;2.53;;;14.20;99.90;;;;;;4958118;28;20428;-74
2023/04/30 06:36:30;;;;;;;4.82;2.45;;;14.20;99.90;;;;;;4954467;28;20436;-74
2023/04/30 06:38:56;;;;;;;5.78;2.80;;;14.20;99.90;;;;;;4946919;28;20510;-74
2023/04/30 06:41:23;;;;;;;6.17;2.73;;;14.30;99.90;;;;;;4955801;28;20473;-74
2023/04/30 06:43:49;;;;;;;4.13;2.50;;;14.40;99.90;;;;;;4958663;28;20423;-74
2023/04/30 06:46:15;;;;;;;5.97;2.65;;;14.60;99.90;;;;;;4954880;28;20420;-74
2023/04/30 06:48:41;;;;;;;8.77;2.92;;;14.80;99.90;;;;;;4970888;28;20473;-74
2023/04/30 06:51:08;;;;;;;6.87;2.30;;;15.00;99.90;;;;;;4959603;28;20427;-74
2023/04/30 06:53:34;;;;;;;5.30;2.55;;;15.00;99.90;;;;;;4943309;28;20412;-74
2023/04/30 06:56:01;;;;;;;5.50;2.33;;;15.10;99.90;;;;;;4978797;28;20496;-74
2023/04/30 06:58:27;;;;;;;4.45;2.30;;;15.10;99.90;;;;;;4956903;28;20416;-74
2023/04/30 07:00:53;;;;;;;6.28;2.20;;;15.10;99.90;;;;;;4952361;28;20403;-74
2023/04/30 07:03:20;;;;;;;5.20;2.20;;;15.10;99.90;;;;;;4957616;28;20517;-74
2023/04/30 07:05:46;;;;;;;4.70;2.30;;;15.20;99.90;;;;;;4959313;28;20943;-74
2023/04/30 07:08:13;;;;;;;4.38;2.10;;;15.10;99.90;;;;;;4956772;28;20463;-74
2023/04/30 07:10:40;;;;;;;4.65;2.35;;;15.10;99.90;;;;;;4970752;28;20495;-74
2023/04/30 07:13:07;;;;;;;6.97;2.55;;;15.30;99.90;;;;;;4949433;28;20418;-74
2023/04/30 07:15:33;;;;;;;7.13;2.30;;;15.30;99.90;;;;;;4965746;28;20448;-74
2023/04/30 07:18:00;;;;;;;4.20;2.35;;;15.30;99.90;;;;;;4958144;28;20414;-74
2023/04/30 07:20:26;;;;;;;5.22;2.30;;;15.40;99.90;;;;;;4959096;28;20419;-74
2023/04/30 07:22:53;;;;;;;5.20;2.30;;;15.50;99.90;;;;;;4955755;28;20570;-74
2023/04/30 07:25:20;;;;;;;4.68;2.08;;;15.70;99.90;;;;;;4955364;28;20764;-74
2023/04/30 07:27:46;;;;;;;5.38;1.95;;;15.70;99.90;;;;;;4966009;28;20506;-74
2023/04/30 07:30:12;;;;;;;4.55;2.10;;;15.70;99.90;;;;;;4955658;28;20479;-74
2023/04/30 07:32:40;;;;;;;6.85;2.40;;;15.80;99.90;;;;;;4987758;28;20452;-74
2023/04/30 07:35:07;;;;;;;4.72;2.20;;;15.90;99.90;;;;;;4956071;28;20422;-74
2023/04/30 07:37:33;;;;;;;4.25;2.10;;;15.90;99.90;;;;;;4957737;28;20786;-74
2023/04/30 07:39:59;;;;;;;6.05;2.60;;;15.90;99.90;;;;;;4979634;28;20925;-74
2023/04/30 07:42:25;;;;;;;4.13;2.20;;;15.90;99.90;;;;;;4976664;28;20412;-74
2023/04/30 07:44:52;;;;;;;5.70;2.53;;;16.00;99.90;;;;;;4952470;28;20424;-74
2023/04/30 07:47:18;;;;;;;4.28;2.17;;;16.10;99.90;;;;;;4954259;28;20421;-74
2023/04/30 07:49:46;;;;;;;9.32;2.30;;;16.10;99.90;;;;;;4959009;28;20463;-74
2023/04/30 07:52:13;;;;;;;5.22;2.10;;;16.20;99.90;;;;;;4975592;28;22159;-74
2023/04/30 07:54:40;;;;;;;5.20;2.25;;;16.30;99.90;;;;;;4979404;28;20986;-74
2023/04/30 07:57:06;;;;;;;7.15;2.25;;;16.40;99.90;;;;;;4956696;28;20561;-74
2023/04/30 07:59:32;;;;;;;6.83;2.20;;;16.40;99.90;;;;;;4958618;28;21040;-74
2023/04/30 08:01:58;;;;;;;5.70;2.20;;;16.20;99.90;;;;;;4956754;28;20422;-74
2023/04/30 08:04:25;;;;;;;4.88;2.10;;;16.10;99.90;;;;;;4959029;28;20457;-74
2023/04/30 08:06:51;;;;;;;4.35;2.10;;;16.00;99.90;;;;;;4966246;28;20427;-74
2023/04/30 08:09:17;;;;;;;4.38;2.33;;;15.90;99.90;;;;;;4953657;28;20468;-74
2023/04/30 08:11:43;;;;;;;6.63;2.33;;;15.90;99.90;;;;;;4958418;28;20522;-74
2023/04/30 08:14:10;;;;;;;5.22;2.33;;;16.00;99.90;;;;;;4943681;28;20450;-74
2023/04/30 08:16:36;;;;;;;5.22;2.17;;;16.20;99.90;;;;;;4955395;28;20780;-74
2023/04/30 08:19:02;;;;;;;5.57;2.28;;;16.50;99.90;;;;;;4967174;28;22253;-74
2023/04/30 08:21:29;;;;;;;5.55;1.90;;;16.50;99.90;;;;;;4957209;28;21162;-74
2023/04/30 08:23:56;;;;;;;4.07;1.90;;;16.40;99.90;;;;;;4984678;28;20430;-74
2023/04/30 08:26:22;;;;;;;3.67;2.10;;;16.40;99.90;;;;;;4954654;28;20420;-74
2023/04/30 08:28:49;;;;;;;7.07;2.00;;;16.40;99.90;;;;;;4983832;28;20408;-74
2023/04/30 08:31:16;;;;;;;5.05;2.17;;;16.50;99.90;;;;;;4964369;28;20493;-74
2023/04/30 08:33:43;;;;;;;4.43;2.03;;;16.50;99.90;;;;;;4955637;28;20635;-74
2023/04/30 08:36:09;;;;;;;5.53;2.05;;;16.50;99.90;;;;;;4954593;28;20418;-74
2023/04/30 08:38:35;;;;;;;5.90;2.10;;;16.60;99.90;;;;;;4959066;28;20831;-74
2023/04/30 08:41:11;;;;;;;5.40;2.17;;;16.80;99.90;;;;;;4968907;28;20411;-74
2023/04/30 08:43:39;;;;;;;4.97;2.00;;;16.80;99.90;;;;;;4951334;28;20408;-74
2023/04/30 08:46:07;;;;;;;4.93;2.20;;;16.70;99.90;;;;;;4956205;28;20420;-74
2023/04/30 08:48:35;;;;;;;3.83;1.98;;;16.60;99.90;;;;;;4957525;28;20490;-74
2023/04/30 08:51:03;;;;;;;4.72;2.00;;;16.60;99.90;;;;;;4954940;28;21007;-74
2023/04/30 08:53:33;;;;;;;6.53;2.40;;;16.50;99.90;;;;;;4959287;28;20498;-74
2023/04/30 08:55:59;;;;;;;5.10;2.10;;;16.70;99.90;;;;;;4960055;28;20433;-74
2023/04/30 08:58:26;;;;;;;6.13;2.30;;;17.20;99.90;;;;;;4950809;28;20464;-74
2023/04/30 09:00:52;;;;;;;4.55;2.00;;;17.30;99.90;;;;;;4951685;28;20477;-74
2023/04/30 09:03:20;;;;;;;4.65;2.05;;;17.20;99.90;;;;;;4953796;28;20471;-74
2023/04/30 09:05:47;;;;;;;5.65;2.38;;;17.00;99.90;;;;;;4983065;28;20439;-74
2023/04/30 09:08:20;;;;;;;5.47;2.10;;;17.10;99.90;;;;;;4947728;28;20436;-74
2023/04/30 09:10:47;;;;;;;5.15;2.25;;;17.50;99.90;;;;;;4962025;28;20432;-74
2023/04/30 09:13:13;;;;;;;6.80;2.17;;;17.90;99.90;;;;;;4937406;28;20518;-74
2023/04/30 09:15:40;;;;;;;6.97;2.35;;;18.10;99.90;;;;;;4955853;28;20416;-74
2023/04/30 09:18:17;;;;;;;4.60;2.10;;;18.20;99.90;;;;;;4951233;28;20493;-74
2023/04/30 09:21:01;;;;;;;5.97;2.10;;;18.30;99.90;;;;;;4957325;28;20519;-74
2023/04/30 09:23:29;;;;;;;4.20;2.05;;;18.10;99.90;;;;;;4958806;28;20460;-73
2023/04/30 09:25:56;;;;;;;5.43;2.13;;;18.20;99.90;;;;;;4971225;28;20504;-74
2023/04/30 09:28:25;;;;;;;3.63;2.22;;;18.20;99.90;;;;;;4959633;28;20424;-74
2023/04/30 09:30:52;;;;;;;4.50;2.17;;;17.90;99.90;;;;;;4970409;28;21007;-74
2023/04/30 09:33:19;;;;;;;3.90;1.90;;;17.80;99.90;;;;;;4958953;28;20511;-74
2023/04/30 09:35:45;;;;;;;4.72;2.10;;;18.00;99.90;;;;;;4980451;28;20483;-74
2023/04/30 09:38:31;;;;;;;5.57;2.05;;;18.10;99.90;;;;;;4958412;28;20804;-74
2023/04/30 09:41:00;;;;;;;7.60;2.22;;;17.80;99.90;;;;;;4945524;28;20421;-74
2023/04/30 09:43:30;;;;;;;4.45;2.10;;;17.80;99.90;;;;;;4961480;28;20457;-74
2023/04/30 09:45:58;;;;;;;3.30;1.88;;;18.00;99.90;;;;;;4986400;28;20421;-74
2023/04/30 09:48:30;;;;;;;6.75;2.13;;;18.40;99.90;;;;;;4946491;28;20412;-74
2023/04/30 09:50:56;;;;;;;4.82;2.20;;;18.40;99.90;;;;;;4959077;28;20426;-74
2023/04/30 09:53:23;;;;;;;3.43;1.67;;;18.50;99.90;;;;;;4986379;28;20417;-74
2023/04/30 09:55:50;;;;;;;5.97;1.92;;;18.90;99.90;;;;;;4963046;28;20483;-74
2023/04/30 09:58:18;;;;;;;5.40;2.40;;;19.10;99.90;;;;;;4959221;28;20507;-74
2023/04/30 10:00:48;;;;;;;5.03;2.10;;;19.30;99.90;;;;;;4956508;28;20471;-74
2023/04/30 10:03:15;;;;;;;4.55;2.20;;;19.30;99.90;;;;;;5039001;28;20430;-74
2023/04/30 10:05:48;;;;;;;4.45;2.25;;;19.30;99.90;;;;;;4988139;28;20427;-74
2023/04/30 10:08:42;;;;;;;4.15;2.13;;;19.40;99.90;;;;;;4958048;28;20428;-74
2023/04/30 10:11:15;;;;;;;4.80;2.20;;;19.40;99.90;;;;;;4940086;28;20854;-74
2023/04/30 10:14:08;;;;;;;3.80;1.95;;;19.60;99.90;;;;;;4958018;28;20986;-74
2023/04/30 10:17:07;;;;;;;8.25;2.05;;;19.70;99.90;;;;;;4956283;28;20424;-74
2023/04/30 10:19:40;;;;;;;4.85;2.10;;;19.80;99.90;;;;;;4954896;28;20512;-74
2023/04/30 10:22:08;;;;;;;4.15;2.00;;;19.70;99.90;;;;;;4955771;28;20416;-74
2023/04/30 10:24:35;;;;;;;4.90;1.90;;;19.80;99.90;;;;;;4982081;28;20930;-74
2023/04/30 10:27:02;;;;;;;4.78;2.00;;;19.80;99.90;;;;;;4974932;28;20412;-74
2023/04/30 10:29:28;;;;;;;5.65;2.35;;;19.80;99.90;;;;;;4963565;28;20424;-74
2023/04/30 10:31:55;;;;;;;7.20;2.30;;;19.60;99.90;;;;;;4954326;28;20544;-74
2023/04/30 10:34:50;;;;;;;4.55;2.20;;;19.60;99.90;;;;;;4957231;28;20426;-74
2023/04/30 10:37:58;;;;;;;5.45;2.30;;;19.50;99.90;;;;;;4938903;28;20422;-74
2023/04/30 10:40:27;;;;;;;4.93;2.20;;;19.60;99.90;;;;;;4949874;28;20784;-74
2023/04/30 10:42:54;;;;;;;5.63;1.97;;;19.70;99.90;;;;;;4954229;28;20512;-74
2023/04/30 10:45:40;;;;;;;4.07;2.20;;;19.70;99.90;;;;;;4986322;28;20792;-74
2023/04/30 10:48:07;;;;;;;4.45;2.28;;;19.70;99.90;;;;;;4956848;28;20459;-74
2023/04/30 10:50:45;;;;;;;6.00;2.28;;;19.80;99.90;;;;;;4969383;28;20532;-74
2023/04/30 10:53:19;;;;;;;5.25;2.40;;;19.90;99.90;;;;;;4956382;28;20428;-74
2023/04/30 10:55:57;;;;;;;6.82;2.22;;;19.90;99.90;;;;;;4955661;28;21029;-74
2023/04/30 10:58:29;;;;;;;4.55;2.33;;;19.70;99.90;;;;;;4951832;28;20428;-74
2023/04/30 11:01:09;;;;;;;7.15;2.55;;;19.60;99.90;;;;;;4958068;28;20432;-74
2023/04/30 11:03:39;;;;;;;5.43;2.38;;;19.60;99.90;;;;;;4960010;28;20420;-74
2023/04/30 11:06:13;;;;;;;5.72;2.10;;;19.60;99.90;;;;;;4956737;28;20424;-74
2023/04/30 11:08:46;;;;;;;5.30;2.10;;;19.60;99.90;;;;;;4964306;28;20499;-74
2023/04/30 11:11:22;;;;;;;7.43;2.40;;;19.50;99.90;;;;;;4959631;28;22031;-74
2023/04/30 11:14:00;;;;;;;6.03;2.28;;;19.50;99.90;;;;;;4955887;28;20451;-74
2023/04/30 11:16:33;;;;;;;6.00;2.70;;;19.30;99.90;;;;;;4960831;28;20424;-74
2023/04/30 11:19:28;;;;;;;4.50;2.47;;;19.20;99.90;;;;;;4959014;28;20668;-74
2023/04/30 11:22:04;;;;;;;6.90;2.60;;;18.70;99.90;;;;;;4949710;28;20433;-74
2023/04/30 11:24:59;;;;;;;5.73;2.23;;;18.10;99.90;;;;;;4953072;28;20426;-74
2023/04/30 11:27:28;;;;;;;6.20;2.43;;;18.10;99.90;;;;;;4957487;28;20417;-74
2023/04/30 11:29:56;;;;;;;6.97;2.33;;;17.90;99.90;;;;;;4955977;28;20416;-74
2023/04/30 11:32:31;;;;;;;6.10;2.20;;;17.80;99.90;;;;;;4969239;28;20412;-74
2023/04/30 11:34:58;;;;;;;4.90;2.40;;;17.70;99.90;;;;;;4953683;28;20782;-74
2023/04/30 11:37:35;;;;;;;5.50;2.40;;;17.80;99.90;;;;;;4961799;28;20965;-74
2023/04/30 11:40:03;;;;;;;5.30;2.60;;;17.50;99.90;;;;;;5040664;28;20503;-74
2023/04/30 11:42:33;;;;;;;4.10;2.40;;;17.10;99.90;;;;;;4957730;28;21105;-74
2023/04/30 11:45:10;;;;;;;8.13;2.90;;;16.90;99.90;;;;;;4958451;28;20489;-74
2023/04/30 11:47:45;;;;;;;6.13;2.45;;;16.90;99.90;;;;;;4955691;28;20518;-74
2023/04/30 11:50:15;;;;;;;7.35;2.60;;;17.00;99.90;;;;;;4953108;28;20464;-74
2023/04/30 11:52:49;;;;;;;5.53;2.47;;;17.10;99.90;;;;;;4955037;28;20925;-74
2023/04/30 11:55:19;;;;;;;5.03;2.50;;;17.50;99.90;;;;;;4954152;28;20523;-74
2023/04/30 11:57:49;;;;;;;4.38;2.45;;;17.40;99.90;;;;;;4952925;28;20425;-74
2023/04/30 12:00:36;;;;;;;5.53;2.58;;;17.50;99.90;;;;;;4955689;28;20521;-74
2023/04/30 12:03:03;;;;;;;5.05;2.45;;;17.40;99.90;;;;;;4939817;28;20428;-74
2023/04/30 12:05:29;;;;;;;6.97;2.40;;;17.30;99.90;;;;;;4936619;28;21353;-74
2023/04/30 12:08:08;;;;;;;6.68;2.70;;;17.90;99.90;;;;;;4956723;28;20427;-74
2023/04/30 12:10:35;;;;;;;6.90;2.67;;;17.50;99.90;;;;;;4964434;28;20450;-74
2023/04/30 12:13:02;;;;;;;6.13;2.78;;;17.10;99.90;;;;;;5028867;28;20416;-74
2023/04/30 12:15:29;;;;;;;5.75;2.65;;;17.10;99.90;;;;;;4956564;28;20426;-74
2023/04/30 12:17:58;;;;;;;6.88;3.00;;;16.80;99.90;;;;;;4954759;28;20481;-74
2023/04/30 12:20:27;;;;;;;6.28;2.60;;;16.60;99.90;;;;;;4952431;28;20422;-74
2023/04/30 12:22:54;;;;;;;5.90;2.77;;;16.80;99.90;;;;;;4953905;28;20420;-74
2023/04/30 12:25:22;;;;;;;6.50;2.75;;;16.90;99.90;;;;;;4954723;28;20521;-74
2023/04/30 12:27:53;;;;;;;7.43;2.75;;;17.30;99.90;;;;;;4956998;28;20842;-74
2023/04/30 12:30:25;;;;;;;12.43;3.03;;;17.40;99.90;;;;;;4979711;28;20768;-74
2023/04/30 12:32:56;;;;;;;7.15;2.80;;;17.30;99.90;;;;;;4960515;28;20428;-74
2023/04/30 12:35:26;;;;;;;5.18;2.70;;;17.70;99.90;;;;;;4958592;28;20414;-74
2023/04/30 12:38:05;;;;;;;7.28;3.00;;;17.60;99.90;;;;;;4961102;28;20426;-74
2023/04/30 12:40:33;;;;;;;4.95;2.83;;;17.50;99.90;;;;;;4977095;28;20976;-74
2023/04/30 12:43:08;;;;;;;7.60;3.20;;;17.40;99.90;;;;;;4971731;28;20456;-74
2023/04/30 12:45:52;;;;;;;4.80;2.90;;;16.80;99.90;;;;;;4959465;28;20434;-74
2023/04/30 12:48:24;;;;;;;7.15;3.35;;;16.90;99.90;;;;;;4941296;28;20426;-74
2023/04/30 12:51:00;;;;;;;8.93;3.60;;;17.10;99.90;;;;;;5037926;28;20950;-74
2023/04/30 12:53:28;;;;;;;7.18;3.33;;;17.40;99.90;;;;;;4964229;28;20464;-74
2023/04/30 12:56:15;;;;;;;5.80;3.22;;;17.20;99.90;;;;;;4960921;28;20418;-74
2023/04/30 12:58:46;;;;;;;5.57;3.30;;;17.10;99.90;;;;;;4963326;28;20428;-74
2023/04/30 13:01:15;;;;;;;7.37;3.53;;;17.50;99.90;;;;;;4964040;28;20419;-74